sensor_id;sensor_type;location;lat;lon;timestamp;temperature;humidity
72756;SHT30;60881;55.002;73.232;2022-10-26T00:01:20;1.74;64.66
72756;SHT30;60881;55.002;73.232;2022-10-26T00:03:54;1.77;64.61
72756;SHT30;60881;55.002;73.232;2022-10-26T00:06:22;1.73;64.45
72756;SHT30;60881;55.002;73.232;2022-10-26T00:08:57;1.70;64.32
72756;SHT30;60881;55.002;73.232;2022-10-26T00:11:33;1.66;64.72
72756;SHT30;60881;55.002;73.232;2022-10-26T00:14:02;1.69;65.14
72756;SHT30;60881;55.002;73.232;2022-10-26T00:16:30;1.67;64.75
72756;SHT30;60881;55.002;73.232;2022-10-26T00:18:57;1.67;65.03
72756;SHT30;60881;55.002;73.232;2022-10-26T00:21:23;1.76;64.93
72756;SHT30;60881;55.002;73.232;2022-10-26T00:23:50;1.79;64.98
72756;SHT30;60881;55.002;73.232;2022-10-26T00:26:17;1.80;65.02
72756;SHT30;60881;55.002;73.232;2022-10-26T00:28:44;1.83;65.01
72756;SHT30;60881;55.002;73.232;2022-10-26T00:31:12;1.83;64.53
72756;SHT30;60881;55.002;73.232;2022-10-26T00:33:39;1.83;64.71
72756;SHT30;60881;55.002;73.232;2022-10-26T00:36:16;1.83;65.46
72756;SHT30;60881;55.002;73.232;2022-10-26T00:38:51;1.87;64.83
72756;SHT30;60881;55.002;73.232;2022-10-26T00:41:23;1.93;65.06
72756;SHT30;60881;55.002;73.232;2022-10-26T00:43:54;1.93;66.09
72756;SHT30;60881;55.002;73.232;2022-10-26T00:46:33;1.93;65.36
72756;SHT30;60881;55.002;73.232;2022-10-26T00:49:15;1.89;65.44
72756;SHT30;60881;55.002;73.232;2022-10-26T00:51:45;1.86;65.66
72756;SHT30;60881;55.002;73.232;2022-10-26T00:54:16;1.81;65.56
72756;SHT30;60881;55.002;73.232;2022-10-26T00:56:49;1.77;65.91
72756;SHT30;60881;55.002;73.232;2022-10-26T00:59:23;1.71;65.79
72756;SHT30;60881;55.002;73.232;2022-10-26T01:01:55;1.80;65.27
72756;SHT30;60881;55.002;73.232;2022-10-26T01:04:22;1.89;65.38
72756;SHT30;60881;55.002;73.232;2022-10-26T01:06:48;1.90;64.78
72756;SHT30;60881;55.002;73.232;2022-10-26T01:09:19;1.87;64.56
72756;SHT30;60881;55.002;73.232;2022-10-26T01:11:50;1.86;64.68
72756;SHT30;60881;55.002;73.232;2022-10-26T01:14:17;1.87;64.84
72756;SHT30;60881;55.002;73.232;2022-10-26T01:19:49;1.93;64.53
72756;SHT30;60881;55.002;73.232;2022-10-26T01:27:52;2.03;64.88
72756;SHT30;60881;55.002;73.232;2022-10-26T01:33:50;2.10;65.55
72756;SHT30;60881;55.002;73.232;2022-10-26T01:42:07;1.94;64.43
72756;SHT30;60881;55.002;73.232;2022-10-26T01:44:47;1.96;64.56
72756;SHT30;60881;55.002;73.232;2022-10-26T01:47:14;2.00;64.97
72756;SHT30;60881;55.002;73.232;2022-10-26T01:49:48;2.03;65.23
72756;SHT30;60881;55.002;73.232;2022-10-26T01:52:18;2.11;64.11
72756;SHT30;60881;55.002;73.232;2022-10-26T02:01:00;2.01;64.04
72756;SHT30;60881;55.002;73.232;2022-10-26T02:03:42;2.00;64.28
72756;SHT30;60881;55.002;73.232;2022-10-26T02:09:26;2.10;63.95
72756;SHT30;60881;55.002;73.232;2022-10-26T02:11:55;2.23;64.17
72756;SHT30;60881;55.002;73.232;2022-10-26T02:17:11;2.37;63.88
72756;SHT30;60881;55.002;73.232;2022-10-26T02:19:46;2.34;64.08
72756;SHT30;60881;55.002;73.232;2022-10-26T02:22:25;2.31;63.34
72756;SHT30;60881;55.002;73.232;2022-10-26T02:24:53;2.21;63.44
72756;SHT30;60881;55.002;73.232;2022-10-26T02:27:34;2.18;63.53
72756;SHT30;60881;55.002;73.232;2022-10-26T02:30:08;2.24;63.49
72756;SHT30;60881;55.002;73.232;2022-10-26T02:32:39;2.24;63.70
72756;SHT30;60881;55.002;73.232;2022-10-26T02:35:07;2.25;63.92
72756;SHT30;60881;55.002;73.232;2022-10-26T02:37:35;2.21;64.19
72756;SHT30;60881;55.002;73.232;2022-10-26T02:40:16;2.28;64.64
72756;SHT30;60881;55.002;73.232;2022-10-26T02:42:49;2.38;64.21
72756;SHT30;60881;55.002;73.232;2022-10-26T02:45:21;2.49;63.71
72756;SHT30;60881;55.002;73.232;2022-10-26T02:47:53;2.38;63.09
72756;SHT30;60881;55.002;73.232;2022-10-26T02:55:43;2.52;63.82
72756;SHT30;60881;55.002;73.232;2022-10-26T02:58:17;2.54;64.23
72756;SHT30;60881;55.002;73.232;2022-10-26T03:00:56;2.58;63.63
72756;SHT30;60881;55.002;73.232;2022-10-26T03:03:23;2.59;63.49
72756;SHT30;60881;55.002;73.232;2022-10-26T03:05:50;2.55;63.39
72756;SHT30;60881;55.002;73.232;2022-10-26T03:08:16;2.58;63.12
72756;SHT30;60881;55.002;73.232;2022-10-26T03:10:44;2.71;63.34
72756;SHT30;60881;55.002;73.232;2022-10-26T03:13:22;2.75;63.43
72756;SHT30;60881;55.002;73.232;2022-10-26T03:15:49;2.82;62.50
72756;SHT30;60881;55.002;73.232;2022-10-26T03:18:16;2.87;62.23
72756;SHT30;60881;55.002;73.232;2022-10-26T03:20:43;2.95;62.11
72756;SHT30;60881;55.002;73.232;2022-10-26T03:23:10;3.01;62.62
72756;SHT30;60881;55.002;73.232;2022-10-26T03:25:37;3.03;62.35
72756;SHT30;60881;55.002;73.232;2022-10-26T03:28:04;2.99;62.79
72756;SHT30;60881;55.002;73.232;2022-10-26T03:30:31;3.05;61.73
72756;SHT30;60881;55.002;73.232;2022-10-26T03:32:58;2.99;62.02
72756;SHT30;60881;55.002;73.232;2022-10-26T03:35:30;2.99;61.53
72756;SHT30;60881;55.002;73.232;2022-10-26T03:37:57;2.98;62.18
72756;SHT30;60881;55.002;73.232;2022-10-26T03:40:30;2.93;61.46
72756;SHT30;60881;55.002;73.232;2022-10-26T03:42:56;2.82;61.81
72756;SHT30;60881;55.002;73.232;2022-10-26T03:45:23;2.75;61.91
72756;SHT30;60881;55.002;73.232;2022-10-26T03:47:50;2.69;62.30
72756;SHT30;60881;55.002;73.232;2022-10-26T03:50:19;2.72;62.30
72756;SHT30;60881;55.002;73.232;2022-10-26T03:52:47;2.77;62.18
72756;SHT30;60881;55.002;73.232;2022-10-26T03:55:14;2.85;62.28
72756;SHT30;60881;55.002;73.232;2022-10-26T03:57:42;2.84;62.23
72756;SHT30;60881;55.002;73.232;2022-10-26T04:00:10;2.92;62.00
72756;SHT30;60881;55.002;73.232;2022-10-26T04:02:37;3.05;61.31
72756;SHT30;60881;55.002;73.232;2022-10-26T04:05:16;3.15;61.38
72756;SHT30;60881;55.002;73.232;2022-10-26T04:07:43;3.11;61.32
72756;SHT30;60881;55.002;73.232;2022-10-26T04:10:09;3.02;61.23
72756;SHT30;60881;55.002;73.232;2022-10-26T04:12:37;3.02;61.45
72756;SHT30;60881;55.002;73.232;2022-10-26T04:15:04;3.03;61.34
72756;SHT30;60881;55.002;73.232;2022-10-26T04:17:32;2.95;61.29
72756;SHT30;60881;55.002;73.232;2022-10-26T04:19:58;2.92;62.01
72756;SHT30;60881;55.002;73.232;2022-10-26T04:22:24;2.92;62.00
72756;SHT30;60881;55.002;73.232;2022-10-26T04:24:56;2.88;62.31
72756;SHT30;60881;55.002;73.232;2022-10-26T04:27:23;2.95;62.25
72756;SHT30;60881;55.002;73.232;2022-10-26T04:29:52;2.93;62.45
72756;SHT30;60881;55.002;73.232;2022-10-26T04:32:18;2.96;62.67
72756;SHT30;60881;55.002;73.232;2022-10-26T04:34:45;2.93;62.00
72756;SHT30;60881;55.002;73.232;2022-10-26T04:37:17;2.89;62.06
72756;SHT30;60881;55.002;73.232;2022-10-26T04:39:44;2.98;62.75
72756;SHT30;60881;55.002;73.232;2022-10-26T04:42:10;3.05;62.64
72756;SHT30;60881;55.002;73.232;2022-10-26T04:44:36;3.09;62.42
72756;SHT30;60881;55.002;73.232;2022-10-26T04:47:03;3.11;62.22
72756;SHT30;60881;55.002;73.232;2022-10-26T04:49:29;3.11;62.15
72756;SHT30;60881;55.002;73.232;2022-10-26T04:52:07;3.12;62.47
72756;SHT30;60881;55.002;73.232;2022-10-26T04:54:33;3.11;62.57
72756;SHT30;60881;55.002;73.232;2022-10-26T04:57:00;3.11;62.95
72756;SHT30;60881;55.002;73.232;2022-10-26T04:59:27;3.18;62.54
72756;SHT30;60881;55.002;73.232;2022-10-26T05:01:53;3.32;62.72
72756;SHT30;60881;55.002;73.232;2022-10-26T05:04:20;3.35;61.52
72756;SHT30;60881;55.002;73.232;2022-10-26T05:06:58;3.58;61.82
72756;SHT30;60881;55.002;73.232;2022-10-26T05:09:24;3.72;60.94
72756;SHT30;60881;55.002;73.232;2022-10-26T05:11:51;3.84;60.91
72756;SHT30;60881;55.002;73.232;2022-10-26T05:14:18;3.97;59.84
72756;SHT30;60881;55.002;73.232;2022-10-26T05:16:44;3.94;59.70
72756;SHT30;60881;55.002;73.232;2022-10-26T05:19:16;3.83;60.02
72756;SHT30;60881;55.002;73.232;2022-10-26T05:21:46;3.73;59.99
72756;SHT30;60881;55.002;73.232;2022-10-26T05:24:12;3.67;60.18
72756;SHT30;60881;55.002;73.232;2022-10-26T05:26:50;3.66;60.46
72756;SHT30;60881;55.002;73.232;2022-10-26T05:29:23;3.64;60.86
72756;SHT30;60881;55.002;73.232;2022-10-26T05:31:59;3.80;60.49
72756;SHT30;60881;55.002;73.232;2022-10-26T05:34:26;3.94;60.41
72756;SHT30;60881;55.002;73.232;2022-10-26T05:36:58;3.83;59.64
72756;SHT30;60881;55.002;73.232;2022-10-26T05:39:24;3.64;60.31
72756;SHT30;60881;55.002;73.232;2022-10-26T05:41:51;3.63;60.68
72756;SHT30;60881;55.002;73.232;2022-10-26T05:44:17;3.82;61.07
72756;SHT30;60881;55.002;73.232;2022-10-26T05:46:45;3.93;60.29
72756;SHT30;60881;55.002;73.232;2022-10-26T05:49:12;3.91;59.83
72756;SHT30;60881;55.002;73.232;2022-10-26T05:51:39;3.83;60.12
72756;SHT30;60881;55.002;73.232;2022-10-26T05:54:10;3.84;60.89
72756;SHT30;60881;55.002;73.232;2022-10-26T05:56:39;3.87;60.90
72756;SHT30;60881;55.002;73.232;2022-10-26T05:59:14;3.96;60.87
72756;SHT30;60881;55.002;73.232;2022-10-26T06:01:56;4.00;60.53
72756;SHT30;60881;55.002;73.232;2022-10-26T06:06:57;3.97;60.60
72756;SHT30;60881;55.002;73.232;2022-10-26T06:09:24;3.94;60.05
72756;SHT30;60881;55.002;73.232;2022-10-26T06:11:59;4.00;60.53
72756;SHT30;60881;55.002;73.232;2022-10-26T06:14:27;4.07;60.61
72756;SHT30;60881;55.002;73.232;2022-10-26T06:17:06;4.04;60.28
72756;SHT30;60881;55.002;73.232;2022-10-26T06:22:37;4.13;60.85
72756;SHT30;60881;55.002;73.232;2022-10-26T06:26:15;4.21;59.74
72756;SHT30;60881;55.002;73.232;2022-10-26T06:28:46;4.31;59.29
72756;SHT30;60881;55.002;73.232;2022-10-26T06:31:18;4.37;59.20
72756;SHT30;60881;55.002;73.232;2022-10-26T06:33:46;4.28;58.56
72756;SHT30;60881;55.002;73.232;2022-10-26T06:36:24;4.25;59.31
72756;SHT30;60881;55.002;73.232;2022-10-26T06:39:10;4.31;59.05
72756;SHT30;60881;55.002;73.232;2022-10-26T06:41:43;4.45;59.38
72756;SHT30;60881;55.002;73.232;2022-10-26T06:44:18;4.54;58.96
72756;SHT30;60881;55.002;73.232;2022-10-26T06:49:55;4.44;58.92
72756;SHT30;60881;55.002;73.232;2022-10-26T06:52:39;4.54;58.89
72756;SHT30;60881;55.002;73.232;2022-10-26T06:55:13;4.72;59.11
72756;SHT30;60881;55.002;73.232;2022-10-26T06:57:41;4.71;57.89
72756;SHT30;60881;55.002;73.232;2022-10-26T07:02:45;4.89;57.81
72756;SHT30;60881;55.002;73.232;2022-10-26T07:05:19;4.85;57.73
72756;SHT30;60881;55.002;73.232;2022-10-26T07:07:46;4.98;58.26
72756;SHT30;60881;55.002;73.232;2022-10-26T07:10:13;5.06;58.05
72756;SHT30;60881;55.002;73.232;2022-10-26T07:12:45;5.05;57.28
72756;SHT30;60881;55.002;73.232;2022-10-26T07:15:11;4.98;57.26
72756;SHT30;60881;55.002;73.232;2022-10-26T07:17:43;4.95;57.17
72756;SHT30;60881;55.002;73.232;2022-10-26T07:20:19;4.92;57.01
72756;SHT30;60881;55.002;73.232;2022-10-26T07:22:55;4.81;57.38
72756;SHT30;60881;55.002;73.232;2022-10-26T07:25:33;4.79;58.10
72756;SHT30;60881;55.002;73.232;2022-10-26T07:28:00;4.81;58.11
72756;SHT30;60881;55.002;73.232;2022-10-26T07:30:27;4.86;57.75
72756;SHT30;60881;55.002;73.232;2022-10-26T07:32:59;4.88;57.65
72756;SHT30;60881;55.002;73.232;2022-10-26T07:35:32;4.95;57.69
72756;SHT30;60881;55.002;73.232;2022-10-26T07:37:59;5.05;57.22
72756;SHT30;60881;55.002;73.232;2022-10-26T07:40:26;5.02;57.82
72756;SHT30;60881;55.002;73.232;2022-10-26T07:42:58;5.06;57.51
72756;SHT30;60881;55.002;73.232;2022-10-26T07:45:26;4.99;57.02
72756;SHT30;60881;55.002;73.232;2022-10-26T07:47:53;4.96;57.96
72756;SHT30;60881;55.002;73.232;2022-10-26T07:50:20;5.11;57.84
72756;SHT30;60881;55.002;73.232;2022-10-26T07:52:46;5.25;57.54
72756;SHT30;60881;55.002;73.232;2022-10-26T07:55:14;5.35;56.80
72756;SHT30;60881;55.002;73.232;2022-10-26T07:57:40;5.39;57.12
72756;SHT30;60881;55.002;73.232;2022-10-26T08:00:08;5.50;57.34
72756;SHT30;60881;55.002;73.232;2022-10-26T08:02:35;5.57;56.90
72756;SHT30;60881;55.002;73.232;2022-10-26T08:05:04;5.59;56.81
72756;SHT30;60881;55.002;73.232;2022-10-26T08:07:31;5.67;56.45
72756;SHT30;60881;55.002;73.232;2022-10-26T08:09:58;5.57;56.36
72756;SHT30;60881;55.002;73.232;2022-10-26T08:12:24;5.57;56.38
72756;SHT30;60881;55.002;73.232;2022-10-26T08:14:50;5.59;56.50
72756;SHT30;60881;55.002;73.232;2022-10-26T08:17:18;5.71;56.52
72756;SHT30;60881;55.002;73.232;2022-10-26T08:19:51;5.76;56.02
72756;SHT30;60881;55.002;73.232;2022-10-26T08:22:19;5.96;56.04
72756;SHT30;60881;55.002;73.232;2022-10-26T08:24:45;6.00;55.25
72756;SHT30;60881;55.002;73.232;2022-10-26T08:27:13;5.86;54.87
72756;SHT30;60881;55.002;73.232;2022-10-26T08:29:40;6.00;54.96
72756;SHT30;60881;55.002;73.232;2022-10-26T08:32:09;6.16;54.12
72756;SHT30;60881;55.002;73.232;2022-10-26T08:34:37;6.11;54.69
72756;SHT30;60881;55.002;73.232;2022-10-26T08:37:03;6.00;54.30
72756;SHT30;60881;55.002;73.232;2022-10-26T08:39:30;6.03;54.93
72756;SHT30;60881;55.002;73.232;2022-10-26T08:42:03;5.90;54.62
72756;SHT30;60881;55.002;73.232;2022-10-26T08:44:47;5.74;54.55
72756;SHT30;60881;55.002;73.232;2022-10-26T08:47:18;5.57;54.93
72756;SHT30;60881;55.002;73.232;2022-10-26T08:49:57;5.56;55.31
72756;SHT30;60881;55.002;73.232;2022-10-26T08:52:29;5.71;55.33
72756;SHT30;60881;55.002;73.232;2022-10-26T08:54:59;5.87;55.18
72756;SHT30;60881;55.002;73.232;2022-10-26T08:57:34;6.01;54.96
72756;SHT30;60881;55.002;73.232;2022-10-26T09:00:12;6.16;55.27
72756;SHT30;60881;55.002;73.232;2022-10-26T09:02:40;6.30;54.93
72756;SHT30;60881;55.002;73.232;2022-10-26T09:05:26;6.41;54.38
72756;SHT30;60881;55.002;73.232;2022-10-26T09:10:52;6.45;52.41
72756;SHT30;60881;55.002;73.232;2022-10-26T09:19:36;6.42;52.35
72756;SHT30;60881;55.002;73.232;2022-10-26T09:22:46;6.54;52.88
72756;SHT30;60881;55.002;73.232;2022-10-26T09:25:18;6.65;52.97
72756;SHT30;60881;55.002;73.232;2022-10-26T09:28:15;6.72;52.60
72756;SHT30;60881;55.002;73.232;2022-10-26T09:30:46;6.74;51.93
72756;SHT30;60881;55.002;73.232;2022-10-26T09:33:17;6.72;52.23
72756;SHT30;60881;55.002;73.232;2022-10-26T09:38:32;6.81;51.72
72756;SHT30;60881;55.002;73.232;2022-10-26T09:46:04;6.68;52.84
72756;SHT30;60881;55.002;73.232;2022-10-26T09:51:11;6.64;52.54
72756;SHT30;60881;55.002;73.232;2022-10-26T09:53:38;6.40;53.28
72756;SHT30;60881;55.002;73.232;2022-10-26T09:56:10;6.38;52.90
72756;SHT30;60881;55.002;73.232;2022-10-26T09:58:52;6.34;52.67
72756;SHT30;60881;55.002;73.232;2022-10-26T10:01:32;6.41;53.01
72756;SHT30;60881;55.002;73.232;2022-10-26T10:07:18;6.22;53.72
72756;SHT30;60881;55.002;73.232;2022-10-26T10:09:38;6.17;53.85
72756;SHT30;60881;55.002;73.232;2022-10-26T10:12:18;6.21;55.75
72756;SHT30;60881;55.002;73.232;2022-10-26T10:14:56;6.25;56.63
72756;SHT30;60881;55.002;73.232;2022-10-26T10:17:24;6.30;55.84
72756;SHT30;60881;55.002;73.232;2022-10-26T10:20:06;6.21;55.56
72756;SHT30;60881;55.002;73.232;2022-10-26T10:22:55;6.11;55.95
72756;SHT30;60881;55.002;73.232;2022-10-26T10:25:34;6.18;57.17
72756;SHT30;60881;55.002;73.232;2022-10-26T10:28:22;6.30;56.97
72756;SHT30;60881;55.002;73.232;2022-10-26T10:30:58;6.30;56.36
72756;SHT30;60881;55.002;73.232;2022-10-26T10:33:40;6.31;56.96
72756;SHT30;60881;55.002;73.232;2022-10-26T10:36:20;6.32;56.48
72756;SHT30;60881;55.002;73.232;2022-10-26T10:38:50;6.37;56.48
72756;SHT30;60881;55.002;73.232;2022-10-26T10:41:25;6.38;57.79
72756;SHT30;60881;55.002;73.232;2022-10-26T10:44:04;6.34;56.03
72756;SHT30;60881;55.002;73.232;2022-10-26T10:46:41;6.30;55.81
72756;SHT30;60881;55.002;73.232;2022-10-26T10:49:20;6.24;55.94
72756;SHT30;60881;55.002;73.232;2022-10-26T10:52:02;6.25;56.60
72756;SHT30;60881;55.002;73.232;2022-10-26T10:54:32;6.25;56.81
72756;SHT30;60881;55.002;73.232;2022-10-26T10:57:02;6.24;56.29
72756;SHT30;60881;55.002;73.232;2022-10-26T11:10:33;6.07;56.97
72756;SHT30;60881;55.002;73.232;2022-10-26T11:13:06;6.07;57.17
72756;SHT30;60881;55.002;73.232;2022-10-26T11:15:36;6.06;56.95
72756;SHT30;60881;55.002;73.232;2022-10-26T11:18:32;5.98;56.76
72756;SHT30;60881;55.002;73.232;2022-10-26T11:21:26;5.98;57.67
72756;SHT30;60881;55.002;73.232;2022-10-26T11:24:46;5.94;58.23
72756;SHT30;60881;55.002;73.232;2022-10-26T11:27:35;6.03;58.39
72756;SHT30;60881;55.002;73.232;2022-10-26T11:30:24;6.08;58.22
72756;SHT30;60881;55.002;73.232;2022-10-26T11:32:56;6.04;57.95
72756;SHT30;60881;55.002;73.232;2022-10-26T11:35:36;6.10;57.62
72756;SHT30;60881;55.002;73.232;2022-10-26T11:38:21;6.07;57.65
72756;SHT30;60881;55.002;73.232;2022-10-26T11:41:03;6.06;57.69
72756;SHT30;60881;55.002;73.232;2022-10-26T11:43:45;6.08;58.39
72756;SHT30;60881;55.002;73.232;2022-10-26T11:48:57;6.08;57.07
72756;SHT30;60881;55.002;73.232;2022-10-26T11:51:51;6.10;57.76
72756;SHT30;60881;55.002;73.232;2022-10-26T11:54:46;6.07;58.22
72756;SHT30;60881;55.002;73.232;2022-10-26T11:57:14;6.04;58.19
72756;SHT30;60881;55.002;73.232;2022-10-26T11:59:49;6.00;57.78
72756;SHT30;60881;55.002;73.232;2022-10-26T12:02:23;6.03;57.58
72756;SHT30;60881;55.002;73.232;2022-10-26T12:04:55;6.07;57.02
72756;SHT30;60881;55.002;73.232;2022-10-26T12:07:29;6.08;57.70
72756;SHT30;60881;55.002;73.232;2022-10-26T12:09:59;6.16;57.71
72756;SHT30;60881;55.002;73.232;2022-10-26T12:15:47;6.13;58.28
72756;SHT30;60881;55.002;73.232;2022-10-26T12:18:23;6.11;58.31
72756;SHT30;60881;55.002;73.232;2022-10-26T12:21:02;6.08;58.64
72756;SHT30;60881;55.002;73.232;2022-10-26T12:24:01;6.11;59.80
72756;SHT30;60881;55.002;73.232;2022-10-26T12:34:12;5.76;63.28
72756;SHT30;60881;55.002;73.232;2022-10-26T12:39:33;5.73;63.96
72756;SHT30;60881;55.002;73.232;2022-10-26T12:47:09;5.59;65.64
72756;SHT30;60881;55.002;73.232;2022-10-26T12:52:55;5.47;67.24
72756;SHT30;60881;55.002;73.232;2022-10-26T13:07:20;5.20;70.05
72756;SHT30;60881;55.002;73.232;2022-10-26T13:12:47;5.04;72.66
72756;SHT30;60881;55.002;73.232;2022-10-26T13:23:30;4.79;74.20
72756;SHT30;60881;55.002;73.232;2022-10-26T13:34:10;4.57;75.37
72756;SHT30;60881;55.002;73.232;2022-10-26T13:39:34;4.41;76.36
72756;SHT30;60881;55.002;73.232;2022-10-26T13:42:02;4.34;76.48
72756;SHT30;60881;55.002;73.232;2022-10-26T13:47:24;4.36;76.99
72756;SHT30;60881;55.002;73.232;2022-10-26T13:50:15;4.38;76.93
72756;SHT30;60881;55.002;73.232;2022-10-26T13:52:46;4.34;76.52
72756;SHT30;60881;55.002;73.232;2022-10-26T13:55:30;4.31;76.80
72756;SHT30;60881;55.002;73.232;2022-10-26T14:01:14;4.25;77.20
72756;SHT30;60881;55.002;73.232;2022-10-26T14:03:44;4.27;77.33
72756;SHT30;60881;55.002;73.232;2022-10-26T14:06:28;4.20;77.16
72756;SHT30;60881;55.002;73.232;2022-10-26T14:08:59;4.17;77.03
72756;SHT30;60881;55.002;73.232;2022-10-26T14:11:42;4.08;77.18
72756;SHT30;60881;55.002;73.232;2022-10-26T14:14:32;4.13;77.00
72756;SHT30;60881;55.002;73.232;2022-10-26T14:17:00;4.10;77.14
72756;SHT30;60881;55.002;73.232;2022-10-26T14:19:36;4.11;76.93
72756;SHT30;60881;55.002;73.232;2022-10-26T14:22:04;4.08;77.02
72756;SHT30;60881;55.002;73.232;2022-10-26T14:24:35;4.16;77.34
72756;SHT30;60881;55.002;73.232;2022-10-26T14:27:15;4.10;77.31
72756;SHT30;60881;55.002;73.232;2022-10-26T14:29:42;4.03;77.73
72756;SHT30;60881;55.002;73.232;2022-10-26T14:34:51;4.07;77.88
72756;SHT30;60881;55.002;73.232;2022-10-26T14:40:15;3.98;78.79
72756;SHT30;60881;55.002;73.232;2022-10-26T14:42:47;3.98;78.86
72756;SHT30;60881;55.002;73.232;2022-10-26T14:45:28;3.94;79.48
72756;SHT30;60881;55.002;73.232;2022-10-26T14:47:56;3.96;79.28
72756;SHT30;60881;55.002;73.232;2022-10-26T14:50:24;3.94;79.20
72756;SHT30;60881;55.002;73.232;2022-10-26T14:53:18;3.90;79.66
72756;SHT30;60881;55.002;73.232;2022-10-26T14:55:50;3.93;79.52
72756;SHT30;60881;55.002;73.232;2022-10-26T14:58:31;3.82;79.79
72756;SHT30;60881;55.002;73.232;2022-10-26T15:01:29;3.87;79.68
72756;SHT30;60881;55.002;73.232;2022-10-26T15:04:02;3.97;79.46
72756;SHT30;60881;55.002;73.232;2022-10-26T15:06:29;3.96;79.27
72756;SHT30;60881;55.002;73.232;2022-10-26T15:08:58;3.97;79.49
72756;SHT30;60881;55.002;73.232;2022-10-26T15:11:32;3.93;79.84
72756;SHT30;60881;55.002;73.232;2022-10-26T15:14:10;3.91;79.50
72756;SHT30;60881;55.002;73.232;2022-10-26T15:16:38;3.89;80.23
72756;SHT30;60881;55.002;73.232;2022-10-26T15:19:09;3.82;80.18
72756;SHT30;60881;55.002;73.232;2022-10-26T15:21:38;3.73;80.49
72756;SHT30;60881;55.002;73.232;2022-10-26T15:24:30;3.64;80.95
72756;SHT30;60881;55.002;73.232;2022-10-26T15:26:58;3.55;81.08
72756;SHT30;60881;55.002;73.232;2022-10-26T15:29:49;3.72;81.09
72756;SHT30;60881;55.002;73.232;2022-10-26T15:32:31;3.70;81.17
72756;SHT30;60881;55.002;73.232;2022-10-26T15:37:49;3.69;81.12
72756;SHT30;60881;55.002;73.232;2022-10-26T15:40:21;3.72;81.12
72756;SHT30;60881;55.002;73.232;2022-10-26T15:42:51;3.76;80.92
72756;SHT30;60881;55.002;73.232;2022-10-26T15:45:30;3.64;81.16
72756;SHT30;60881;55.002;73.232;2022-10-26T15:47:59;3.53;81.77
72756;SHT30;60881;55.002;73.232;2022-10-26T15:50:39;3.56;81.82
72756;SHT30;60881;55.002;73.232;2022-10-26T15:53:12;3.56;81.12
72756;SHT30;60881;55.002;73.232;2022-10-26T15:55:42;3.52;81.39
72756;SHT30;60881;55.002;73.232;2022-10-26T15:58:10;3.67;81.22
72756;SHT30;60881;55.002;73.232;2022-10-26T16:00:36;3.64;80.98
72756;SHT30;60881;55.002;73.232;2022-10-26T16:03:03;3.63;81.61
72756;SHT30;60881;55.002;73.232;2022-10-26T16:05:42;3.59;81.97
72756;SHT30;60881;55.002;73.232;2022-10-26T16:08:14;3.56;82.18
72756;SHT30;60881;55.002;73.232;2022-10-26T16:10:43;3.53;82.39
72756;SHT30;60881;55.002;73.232;2022-10-26T16:13:14;3.44;82.40
72756;SHT30;60881;55.002;73.232;2022-10-26T16:15:48;3.36;82.52
72756;SHT30;60881;55.002;73.232;2022-10-26T16:18:15;3.29;82.71
72756;SHT30;60881;55.002;73.232;2022-10-26T16:20:44;3.20;82.94
72756;SHT30;60881;55.002;73.232;2022-10-26T16:23:11;3.19;83.17
72756;SHT30;60881;55.002;73.232;2022-10-26T16:25:45;3.13;83.18
72756;SHT30;60881;55.002;73.232;2022-10-26T16:28:13;3.09;83.43
72756;SHT30;60881;55.002;73.232;2022-10-26T16:30:42;3.13;83.22
72756;SHT30;60881;55.002;73.232;2022-10-26T16:33:21;3.20;82.96
72756;SHT30;60881;55.002;73.232;2022-10-26T16:35:54;3.11;83.25
72756;SHT30;60881;55.002;73.232;2022-10-26T16:38:27;3.08;83.23
72756;SHT30;60881;55.002;73.232;2022-10-26T16:43:39;3.13;82.78
72756;SHT30;60881;55.002;73.232;2022-10-26T16:46:10;3.16;82.92
72756;SHT30;60881;55.002;73.232;2022-10-26T16:48:41;3.16;82.84
72756;SHT30;60881;55.002;73.232;2022-10-26T16:51:22;3.23;81.99
72756;SHT30;60881;55.002;73.232;2022-10-26T16:53:54;3.29;81.99
72756;SHT30;60881;55.002;73.232;2022-10-26T16:56:28;3.30;81.71
72756;SHT30;60881;55.002;73.232;2022-10-26T16:58:56;3.30;81.77
72756;SHT30;60881;55.002;73.232;2022-10-26T17:01:23;3.25;81.79
72756;SHT30;60881;55.002;73.232;2022-10-26T17:03:50;3.18;82.44
72756;SHT30;60881;55.002;73.232;2022-10-26T17:06:18;3.15;82.71
72756;SHT30;60881;55.002;73.232;2022-10-26T17:08:47;3.18;83.11
72756;SHT30;60881;55.002;73.232;2022-10-26T17:11:23;3.35;82.49
72756;SHT30;60881;55.002;73.232;2022-10-26T17:13:53;3.50;81.55
72756;SHT30;60881;55.002;73.232;2022-10-26T17:16:25;3.52;81.33
72756;SHT30;60881;55.002;73.232;2022-10-26T17:18:52;3.59;81.22
72756;SHT30;60881;55.002;73.232;2022-10-26T17:21:32;3.60;80.89
72756;SHT30;60881;55.002;73.232;2022-10-26T17:24:05;3.55;80.99
72756;SHT30;60881;55.002;73.232;2022-10-26T17:26:38;3.64;80.74
72756;SHT30;60881;55.002;73.232;2022-10-26T17:29:06;3.63;80.94
72756;SHT30;60881;55.002;73.232;2022-10-26T17:31:33;3.66;80.43
72756;SHT30;60881;55.002;73.232;2022-10-26T17:33:59;3.74;80.22
72756;SHT30;60881;55.002;73.232;2022-10-26T17:36:28;3.67;80.39
72756;SHT30;60881;55.002;73.232;2022-10-26T17:39:01;3.72;80.54
72756;SHT30;60881;55.002;73.232;2022-10-26T17:41:29;3.73;79.87
72756;SHT30;60881;55.002;73.232;2022-10-26T17:43:55;3.74;80.21
72756;SHT30;60881;55.002;73.232;2022-10-26T17:46:32;3.82;80.11
72756;SHT30;60881;55.002;73.232;2022-10-26T17:48:59;3.83;79.82
72756;SHT30;60881;55.002;73.232;2022-10-26T17:51:28;3.86;79.53
72756;SHT30;60881;55.002;73.232;2022-10-26T17:53:55;3.79;79.81
72756;SHT30;60881;55.002;73.232;2022-10-26T17:56:26;3.66;80.51
72756;SHT30;60881;55.002;73.232;2022-10-26T17:58:59;3.66;80.96
72756;SHT30;60881;55.002;73.232;2022-10-26T18:01:27;3.60;80.92
72756;SHT30;60881;55.002;73.232;2022-10-26T18:04:04;3.50;80.57
72756;SHT30;60881;55.002;73.232;2022-10-26T18:06:31;3.39;81.03
72756;SHT30;60881;55.002;73.232;2022-10-26T18:08:58;3.36;81.24
72756;SHT30;60881;55.002;73.232;2022-10-26T18:11:24;3.32;81.61
72756;SHT30;60881;55.002;73.232;2022-10-26T18:13:59;3.46;81.42
72756;SHT30;60881;55.002;73.232;2022-10-26T18:16:31;3.39;80.93
72756;SHT30;60881;55.002;73.232;2022-10-26T18:19:03;3.29;81.10
72756;SHT30;60881;55.002;73.232;2022-10-26T18:21:32;3.19;81.58
72756;SHT30;60881;55.002;73.232;2022-10-26T18:23:58;3.23;81.68
72756;SHT30;60881;55.002;73.232;2022-10-26T18:26:34;3.20;81.69
72756;SHT30;60881;55.002;73.232;2022-10-26T18:29:01;3.18;81.78
72756;SHT30;60881;55.002;73.232;2022-10-26T18:31:32;3.16;81.99
72756;SHT30;60881;55.002;73.232;2022-10-26T18:34:06;3.18;81.77
72756;SHT30;60881;55.002;73.232;2022-10-26T18:36:34;3.15;82.12
72756;SHT30;60881;55.002;73.232;2022-10-26T18:39:06;3.18;81.82